Terminal Aerodrome Forecast
Issued by NWS

Current Version | Previous Version | Text Only | Print | Product List | Glossary On
Versions: 1 2 3 4 5 6 7 8 9 10 11 12 13 14 15 16 17 18
000
FTUS46 KSGX 242300
TAFCRQ
TAF
KCRQ 242337Z 2500/2524 VRB04KT P6SM BKN200
     FM250500 19006KT P6SM BKN012
     FM250800 24010G15KT P6SM VCSH OVC020
     FM251300 VRB04KT P6SM VCSH OVC035
     FM251600 VRB04KT P6SM SCT040
     FM252100 28008KT P6SM SKC=

USA.gov is the U.S. government's official web portal to all federal, state and local government web resources and services.